Terminal Aerodrome Forecast
Issued by NWS Missoula, MT

Home | Current Version | Previous Version | Text Only | Print | Product List | Glossary On
Versions: 1 2 3 4 5 6 7 8 9 10 11 12 13
000
FTUS45 KMSO 041726
TAFBTM
TAF
KBTM 041726Z 0418/0518 VRB05KT P6SM SKC
     FM042000 26008KT P6SM SCT060
     FM050400 VRB05KT P6SM SCT120=

USA.gov is the U.S. government's official web portal to all federal, state and local government web resources and services.